createdAt,value
2017-08-30T08:39:55.361Z,25.05
2017-08-30T08:41:02.829Z,25.18
2017-08-30T08:42:09.887Z,25.31
2017-08-30T08:43:17.865Z,25.46
2017-08-30T08:44:25.873Z,25.56
2017-08-30T08:45:36.908Z,25.64
2017-08-30T08:46:45.966Z,25.70
2017-08-30T08:47:54.469Z,25.68
2017-08-30T08:49:05.191Z,25.77
2017-08-30T08:50:12.881Z,25.97
2017-08-30T08:51:22.139Z,26.06
2017-08-30T08:52:30.247Z,26.15
2017-08-30T08:53:39.099Z,26.19
2017-08-30T08:54:47.049Z,26.21
2017-08-30T08:55:56.194Z,26.21
2017-08-30T08:57:05.005Z,26.25
2017-08-30T08:58:16.089Z,26.26
2017-08-30T08:59:27.101Z,26.35
2017-08-30T09:00:36.090Z,26.34
2017-08-30T09:01:44.837Z,26.38
2017-08-30T09:02:54.879Z,26.46
2017-08-30T09:04:04.928Z,26.61
2017-08-30T09:05:14.928Z,26.61
2017-08-30T09:06:23.126Z,26.76
2017-08-30T09:07:32.894Z,26.89
2017-08-30T09:08:44.149Z,26.97
2017-08-30T09:09:52.879Z,27.00
2017-08-30T09:11:00.129Z,26.98
2017-08-30T09:12:07.903Z,26.95
2017-08-30T09:13:19.236Z,27.11
2017-08-30T09:14:28.867Z,27.13
2017-08-30T09:15:36.867Z,27.22
2017-08-30T09:16:44.792Z,27.26
2017-08-30T09:17:52.581Z,27.21
2017-08-30T09:18:59.835Z,27.17
2017-08-30T09:20:07.028Z,27.21
2017-08-30T09:21:16.329Z,27.29
2017-08-30T09:22:24.869Z,27.32
2017-08-30T09:23:33.843Z,27.24
2017-08-30T09:24:41.864Z,27.26
2017-08-30T09:25:50.117Z,27.37
2017-08-30T09:26:58.176Z,27.32
2017-08-30T09:28:04.929Z,27.25
2017-08-30T09:29:12.325Z,27.28
2017-08-30T09:30:22.039Z,27.12
2017-08-30T09:31:32.783Z,27.16
2017-08-30T09:32:39.790Z,27.25
2017-08-30T09:33:47.806Z,27.19
2017-08-30T09:34:55.770Z,27.27
2017-08-30T09:36:05.020Z,27.31
2017-08-30T09:37:13.865Z,27.46
2017-08-30T09:38:21.817Z,27.61
2017-08-30T09:39:29.835Z,27.82
2017-08-30T09:40:37.921Z,27.87
2017-08-30T09:41:46.611Z,27.81
2017-08-30T09:42:55.007Z,27.89
2017-08-30T09:44:03.031Z,28.00
2017-08-30T09:45:11.025Z,27.93
2017-08-30T09:46:18.790Z,28.07
2017-08-30T09:47:28.921Z,28.10
2017-08-30T09:48:36.916Z,27.98
2017-08-30T09:49:44.807Z,27.95
2017-08-30T09:50:53.775Z,28.05
2017-08-30T09:52:03.078Z,28.10
2017-08-30T09:53:11.270Z,28.12
2017-08-30T09:54:20.028Z,28.24
2017-08-30T09:55:29.043Z,28.28
2017-08-30T09:56:40.104Z,28.45
2017-08-30T09:57:48.798Z,28.57
2017-08-30T09:59:25.916Z,28.62
2017-08-30T10:00:36.856Z,28.52
2017-08-30T10:01:44.693Z,28.57
2017-08-30T10:02:53.877Z,28.65
2017-08-30T10:04:02.816Z,28.70
2017-08-30T10:05:12.875Z,28.76
2017-08-30T10:06:23.979Z,28.74
2017-08-30T10:07:33.948Z,28.78
2017-08-30T10:08:44.835Z,28.72
2017-08-30T10:09:54.966Z,28.77
2017-08-30T10:11:04.892Z,28.87
2017-08-30T10:12:15.942Z,28.93
2017-08-30T10:13:25.843Z,29.00
2017-08-30T10:14:36.856Z,28.94
2017-08-30T10:15:45.195Z,29.07
2017-08-30T10:16:53.822Z,29.04
2017-08-30T10:18:04.813Z,28.87
2017-08-30T10:19:14.114Z,28.99
2017-08-30T10:20:21.743Z,29.09
2017-08-30T10:21:29.086Z,29.12
2017-08-30T10:22:34.851Z,29.20
2017-08-30T10:23:40.637Z,29.25
2017-08-30T10:24:47.345Z,29.23
2017-08-30T10:25:53.701Z,29.24
2017-08-30T10:26:59.465Z,29.24
2017-08-30T10:28:05.887Z,29.14
2017-08-30T10:29:11.687Z,29.18
2017-08-30T10:30:17.526Z,29.17
2017-08-30T10:31:23.925Z,29.22
2017-08-30T10:32:29.603Z,29.21
2017-08-30T10:33:35.750Z,29.24
2017-08-30T10:34:41.511Z,29.16
2017-08-30T10:35:47.437Z,29.22
2017-08-30T10:36:53.285Z,29.25
2017-08-30T10:37:59.033Z,29.20
2017-08-30T10:39:04.687Z,29.11
2017-08-30T10:40:10.608Z,29.13
2017-08-30T10:41:16.390Z,29.16
2017-08-30T10:42:22.364Z,29.24
2017-08-30T10:43:28.137Z,29.36
2017-08-30T10:44:34.764Z,29.43
2017-08-30T10:45:41.177Z,29.37
2017-08-30T10:46:47.095Z,29.47
2017-08-30T10:47:53.634Z,29.43
2017-08-30T10:48:59.443Z,29.52
2017-08-30T10:50:05.219Z,29.61
2017-08-30T10:51:11.055Z,29.57
2017-08-30T10:52:16.989Z,29.40
2017-08-30T10:53:22.559Z,29.31
2017-08-30T10:54:29.340Z,29.54
2017-08-30T10:55:35.205Z,29.71
2017-08-30T10:56:40.976Z,29.72
2017-08-30T10:57:46.807Z,29.80
2017-08-30T10:58:52.769Z,30.00
2017-08-30T10:59:59.292Z,29.98
2017-08-30T11:01:05.028Z,30.13
2017-08-30T11:02:14.461Z,30.07
2017-08-30T11:03:20.065Z,30.22
2017-08-30T11:04:25.835Z,30.37
2017-08-30T11:05:31.596Z,30.23
2017-08-30T11:06:37.365Z,30.51
2017-08-30T11:07:43.139Z,30.77
2017-08-30T11:08:48.881Z,30.78
2017-08-30T11:09:54.641Z,30.70
2017-08-30T11:11:01.078Z,30.75
2017-08-30T11:12:06.867Z,30.86
2017-08-30T11:13:13.864Z,30.71
2017-08-30T11:14:19.732Z,30.85
2017-08-30T11:15:25.511Z,30.86
2017-08-30T11:16:31.301Z,30.95
2017-08-30T11:17:37.067Z,30.78
2017-08-30T11:18:43.516Z,30.98
2017-08-30T11:19:49.877Z,31.10
2017-08-30T11:20:56.369Z,31.28
2017-08-30T11:22:02.180Z,31.20
2017-08-30T11:23:07.823Z,31.18
2017-08-30T11:24:14.242Z,31.10
2017-08-30T11:25:20.862Z,30.91
2017-08-30T11:26:26.878Z,30.84
2017-08-30T11:27:32.792Z,30.66
2017-08-30T11:28:38.432Z,30.34
2017-08-30T11:29:44.344Z,30.33
2017-08-30T11:30:50.091Z,30.00
2017-08-30T11:31:55.936Z,30.02
2017-08-30T11:33:02.391Z,30.08
2017-08-30T11:34:08.807Z,30.17
2017-08-30T11:35:15.302Z,30.03
2017-08-30T11:36:21.541Z,30.16
2017-08-30T11:37:28.069Z,30.33
2017-08-30T11:38:33.861Z,30.40
2017-08-30T11:39:40.136Z,29.77
2017-08-30T11:40:46.021Z,29.74
2017-08-30T11:41:52.792Z,29.83
2017-08-30T11:42:58.738Z,29.94
2017-08-30T11:44:04.882Z,30.00
2017-08-30T11:45:10.681Z,30.11
2017-08-30T11:46:16.447Z,30.11
2017-08-30T11:47:22.415Z,30.23
2017-08-30T11:48:28.228Z,30.10
2017-08-30T11:49:34.096Z,30.25
2017-08-30T11:50:39.879Z,30.24
2017-08-30T11:51:46.365Z,30.11
2017-08-30T11:52:51.785Z,30.18
2017-08-30T11:53:57.520Z,30.11
2017-08-30T11:55:03.268Z,30.09
2017-08-30T11:56:09.844Z,29.97
2017-08-30T11:57:15.709Z,29.95
2017-08-30T11:58:21.491Z,29.99
2017-08-30T11:59:27.560Z,29.99
2017-08-30T12:00:33.894Z,30.06
2017-08-30T12:01:39.673Z,30.07
2017-08-30T12:02:45.429Z,30.13
2017-08-30T12:03:51.084Z,30.27
2017-08-30T12:04:57.860Z,30.21
2017-08-30T12:06:03.630Z,30.21
2017-08-30T12:07:09.537Z,30.09
2017-08-30T12:08:15.397Z,30.12
2017-08-30T12:09:21.167Z,30.16
2017-08-30T12:10:27.551Z,30.19
2017-08-30T12:11:33.457Z,30.14
2017-08-30T12:12:39.793Z,29.93
2017-08-30T12:13:46.331Z,29.99
2017-08-30T12:14:52.929Z,29.95
2017-08-30T12:15:59.449Z,30.09
2017-08-30T12:17:05.244Z,30.05
2017-08-30T12:18:10.864Z,29.91
2017-08-30T12:19:16.724Z,30.02
2017-08-30T12:20:23.147Z,30.18
2017-08-30T12:21:29.693Z,30.18
2017-08-30T12:22:36.112Z,30.31
2017-08-30T12:23:41.856Z,30.35
2017-08-30T12:24:47.717Z,30.39
2017-08-30T12:25:54.229Z,30.45
2017-08-30T12:27:00.552Z,30.40
2017-08-30T12:28:06.378Z,30.47
2017-08-30T12:29:12.253Z,30.44
2017-08-30T12:30:18.059Z,30.61
2017-08-30T12:31:23.644Z,30.65
2017-08-30T12:32:30.139Z,30.78
2017-08-30T12:33:35.679Z,30.84
2017-08-30T12:34:41.464Z,30.81
2017-08-30T12:35:47.216Z,30.65
2017-08-30T12:36:58.780Z,30.64
2017-08-30T12:38:10.194Z,30.78
2017-08-30T12:39:21.456Z,30.87
2017-08-30T12:40:27.031Z,31.01
2017-08-30T12:41:34.138Z,30.83
2017-08-30T12:42:40.180Z,30.85
2017-08-30T12:43:46.047Z,30.70
2017-08-30T12:44:51.792Z,30.74
2017-08-30T12:45:57.669Z,30.80
2017-08-30T12:47:04.197Z,30.76
2017-08-30T12:48:09.977Z,30.47
2017-08-30T12:49:15.749Z,30.43
2017-08-30T12:50:21.764Z,30.50
2017-08-30T12:51:27.632Z,30.49
2017-08-30T12:52:33.435Z,30.58
2017-08-30T12:53:39.613Z,30.59
2017-08-30T12:54:45.562Z,30.73
2017-08-30T12:55:51.402Z,30.99
2017-08-30T12:56:57.908Z,31.21
2017-08-30T12:58:04.374Z,31.25
2017-08-30T12:59:10.239Z,31.43
2017-08-30T13:00:16.606Z,31.53
2017-08-30T13:01:23.170Z,31.69
2017-08-30T13:02:28.927Z,31.75
2017-08-30T13:03:35.487Z,31.71
2017-08-30T13:04:41.336Z,31.78
2017-08-30T13:05:47.108Z,31.85
2017-08-30T13:06:54.092Z,31.95
2017-08-30T13:08:00.508Z,32.04
2017-08-30T13:09:06.870Z,31.98
2017-08-30T13:10:13.206Z,31.92
2017-08-30T13:11:18.721Z,31.89
2017-08-30T13:12:25.185Z,31.78
2017-08-30T13:13:30.920Z,31.70
2017-08-30T13:14:36.844Z,31.53
2017-08-30T13:15:43.334Z,31.08
2017-08-30T13:16:49.268Z,31.09
2017-08-30T13:17:55.070Z,30.91
2017-08-30T13:19:00.884Z,30.92
2017-08-30T13:20:07.281Z,30.49
2017-08-30T13:21:13.847Z,30.64
2017-08-30T13:22:19.635Z,30.70
2017-08-30T13:23:25.419Z,30.69
2017-08-30T13:24:31.259Z,30.93
2017-08-30T13:25:37.024Z,31.09
2017-08-30T13:26:42.906Z,31.29
2017-08-30T13:27:49.483Z,31.44
2017-08-30T13:28:55.222Z,31.22
2017-08-30T13:30:01.065Z,31.30
2017-08-30T13:31:06.873Z,31.47
2017-08-30T13:32:12.793Z,31.65
2017-08-30T13:33:19.445Z,31.77
2017-08-30T13:34:25.205Z,31.46
2017-08-30T13:35:31.532Z,31.64
2017-08-30T13:36:37.198Z,31.69
2017-08-30T13:37:43.027Z,31.53
2017-08-30T13:38:49.171Z,31.19
2017-08-30T13:39:55.066Z,31.24
2017-08-30T13:41:00.841Z,31.26
2017-08-30T13:42:06.609Z,31.29
2017-08-30T13:43:13.247Z,31.48
2017-08-30T13:44:20.472Z,31.58
2017-08-30T13:45:27.178Z,31.78
2017-08-30T13:46:33.709Z,31.78
2017-08-30T13:47:39.559Z,31.94
2017-08-30T13:48:45.374Z,32.09
2017-08-30T13:49:51.112Z,32.11
2017-08-30T13:50:56.943Z,32.07
2017-08-30T13:52:03.433Z,32.17
2017-08-30T13:53:10.056Z,32.22
2017-08-30T13:54:15.824Z,32.46
2017-08-30T13:55:21.625Z,32.59
2017-08-30T13:56:27.421Z,32.64
2017-08-30T13:57:33.307Z,32.61
2017-08-30T13:58:39.148Z,32.64
2017-08-30T13:59:44.722Z,32.58
2017-08-30T14:00:50.557Z,32.57
2017-08-30T14:01:56.910Z,32.30
2017-08-30T14:03:02.689Z,32.24
2017-08-30T14:04:09.336Z,32.26
2017-08-30T14:05:15.941Z,32.28
2017-08-30T14:06:21.793Z,32.18
2017-08-30T14:07:27.956Z,32.09
2017-08-30T14:08:33.731Z,32.30
2017-08-30T14:09:39.536Z,32.40
2017-08-30T14:10:45.284Z,32.51
2017-08-30T14:11:51.083Z,32.41
2017-08-30T14:12:56.935Z,32.37
2017-08-30T14:14:02.684Z,32.41
2017-08-30T14:15:08.491Z,32.26
2017-08-30T14:16:16.005Z,32.26
2017-08-30T14:17:24.055Z,32.24
2017-08-30T14:18:31.910Z,32.32
2017-08-30T14:19:38.335Z,32.22
2017-08-30T14:20:44.211Z,32.33
2017-08-30T14:21:53.956Z,32.37
2017-08-30T14:22:59.716Z,32.31
2017-08-30T14:24:05.688Z,32.14
2017-08-30T14:27:06.723Z,32.41
2017-08-30T14:28:13.525Z,32.62
2017-08-30T14:29:22.827Z,32.74
2017-08-30T14:30:28.884Z,32.82
2017-08-30T14:31:35.307Z,32.71
2017-08-30T14:32:41.093Z,32.98
2017-08-30T14:33:47.518Z,33.11
2017-08-30T14:34:53.514Z,33.18
2017-08-30T14:36:01.121Z,33.21
2017-08-30T14:37:06.877Z,33.43
2017-08-30T14:38:13.329Z,33.04
2017-08-30T14:39:19.501Z,32.87
2017-08-30T14:40:26.579Z,33.01
2017-08-30T14:41:32.506Z,32.70
2017-08-30T14:42:38.324Z,32.77
2017-08-30T14:43:44.174Z,32.97
2017-08-30T14:44:50.899Z,32.96
2017-08-30T14:45:57.395Z,32.96
2017-08-30T14:47:03.595Z,32.80
2017-08-30T14:48:09.306Z,32.85
2017-08-30T14:49:15.706Z,32.28
2017-08-30T14:50:21.560Z,32.58
2017-08-30T14:51:28.078Z,32.82
2017-08-30T14:52:34.688Z,32.91
2017-08-30T14:53:41.140Z,32.92
2017-08-30T14:54:47.540Z,32.70
2017-08-30T14:55:53.917Z,32.60
2017-08-30T14:56:59.763Z,32.38
2017-08-30T14:58:05.577Z,32.34
2017-08-30T14:59:11.181Z,32.38
2017-08-30T15:00:16.927Z,32.45
2017-08-30T15:01:23.558Z,32.49
2017-08-30T15:02:29.320Z,32.48
2017-08-30T15:03:35.170Z,32.57
2017-08-30T15:04:40.986Z,32.46
2017-08-30T15:05:46.820Z,32.01
2017-08-30T15:06:52.690Z,32.10
2017-08-30T15:07:58.592Z,32.07
2017-08-30T15:09:03.475Z,32.02
2017-08-30T15:10:09.329Z,32.15
2017-08-30T15:11:16.377Z,32.13
2017-08-30T15:12:22.171Z,32.41
2017-08-30T15:13:28.262Z,32.52
2017-08-30T15:14:34.058Z,32.75
2017-08-30T15:15:39.844Z,32.77
2017-08-30T15:16:45.723Z,32.90
2017-08-30T15:17:51.665Z,32.94
2017-08-30T15:18:57.609Z,33.01
2017-08-30T15:20:03.675Z,32.77
2017-08-30T15:21:09.428Z,32.83
2017-08-30T15:22:15.225Z,32.77
2017-08-30T15:23:21.074Z,32.82
2017-08-30T15:24:27.637Z,32.79
2017-08-30T15:25:33.527Z,32.88
2017-08-30T15:26:39.290Z,33.14
2017-08-30T15:27:45.044Z,33.34
2017-08-30T15:28:54.069Z,33.35
2017-08-30T15:30:00.603Z,33.64
2017-08-30T15:31:06.406Z,33.69
2017-08-30T15:32:13.825Z,33.67
2017-08-30T15:33:20.181Z,33.61
2017-08-30T15:34:26.522Z,33.81
2017-08-30T15:35:32.275Z,33.90
2017-08-30T15:36:38.536Z,33.69
2017-08-30T15:37:44.651Z,33.43
2017-08-30T15:38:52.587Z,33.58
2017-08-30T15:39:59.344Z,33.47
2017-08-30T15:41:06.385Z,33.14
2017-08-30T15:42:12.646Z,32.71
2017-08-30T15:43:18.422Z,32.53
2017-08-30T15:44:25.801Z,31.67
2017-08-30T15:45:34.439Z,31.83
2017-08-30T15:46:42.535Z,31.72
2017-08-30T15:47:48.714Z,31.55
2017-08-30T15:48:55.229Z,31.61
2017-08-30T15:50:02.293Z,31.67
2017-08-30T15:51:08.851Z,31.76
2017-08-30T15:52:15.846Z,31.72
2017-08-30T15:53:22.450Z,31.56
2017-08-30T15:54:29.861Z,31.74
2017-08-30T15:55:36.204Z,32.01
2017-08-30T15:56:42.050Z,31.73
2017-08-30T15:57:49.437Z,32.17
2017-08-30T15:58:56.700Z,31.99
2017-08-30T16:00:04.827Z,32.37
2017-08-30T16:01:13.403Z,32.11
2017-08-30T16:02:21.647Z,32.47
2017-08-30T16:03:30.090Z,33.02
2017-08-30T16:04:36.831Z,32.84
2017-08-30T16:05:46.208Z,33.31
2017-08-30T16:06:54.420Z,32.94
2017-08-30T16:08:02.324Z,33.04
2017-08-30T16:09:12.515Z,32.63
2017-08-30T16:10:21.042Z,32.84
2017-08-30T16:11:28.680Z,32.50
2017-08-30T16:12:36.265Z,32.25
2017-08-30T16:13:45.185Z,31.91
2017-08-30T16:14:52.351Z,31.96
2017-08-30T16:16:00.882Z,31.92
2017-08-30T16:17:08.865Z,31.70
2017-08-30T16:18:18.019Z,31.81
2017-08-30T16:19:27.234Z,31.94
2017-08-30T16:20:33.237Z,31.47
2017-08-30T16:21:39.948Z,31.73
2017-08-30T16:22:47.511Z,31.82
2017-08-30T16:23:53.311Z,32.09
2017-08-30T16:24:59.729Z,31.78
2017-08-30T16:26:06.336Z,32.23
2017-08-30T16:27:14.211Z,32.34
2017-08-30T16:28:21.858Z,32.38
2017-08-30T16:29:30.181Z,32.58
2017-08-30T16:30:38.112Z,32.25
2017-08-30T16:31:45.885Z,31.93
2017-08-30T16:32:52.266Z,31.66
2017-08-30T16:33:58.800Z,31.62
2017-08-30T16:35:04.787Z,31.13
2017-08-30T16:36:11.431Z,30.91
2017-08-30T16:37:17.214Z,30.68
2017-08-30T16:38:23.445Z,30.44
2017-08-30T16:39:30.161Z,30.13
2017-08-30T16:40:36.469Z,29.99
2017-08-30T16:41:42.963Z,30.03
2017-08-30T16:42:48.722Z,29.90
2017-08-30T16:43:54.528Z,29.51
2017-08-30T16:45:01.296Z,29.45
2017-08-30T16:46:10.319Z,29.43
2017-08-30T16:47:18.472Z,29.46
2017-08-30T16:48:27.416Z,29.49
2017-08-30T16:49:35.092Z,29.32
2017-08-30T16:50:42.011Z,29.29
2017-08-30T16:51:49.865Z,29.17
2017-08-30T16:52:59.871Z,29.04
2017-08-30T16:54:08.005Z,28.87
2017-08-30T16:55:16.118Z,28.90
2017-08-30T16:56:22.323Z,28.83
2017-08-30T16:57:28.088Z,28.78
2017-08-30T16:58:37.447Z,28.84
2017-08-30T16:59:45.384Z,28.76
2017-08-30T17:00:54.314Z,28.80
2017-08-30T17:02:01.809Z,28.80
2017-08-30T17:03:07.580Z,28.60
2017-08-30T17:04:13.336Z,28.68
2017-08-30T17:05:19.133Z,28.74
2017-08-30T17:06:24.755Z,28.72
2017-08-30T17:07:30.546Z,28.75
2017-08-30T17:08:36.351Z,28.64
2017-08-30T17:09:42.110Z,28.60
2017-08-30T17:10:47.754Z,28.60
2017-08-30T17:11:54.243Z,28.54
2017-08-30T17:12:59.899Z,28.59
2017-08-30T17:14:06.101Z,28.56
2017-08-30T17:15:12.818Z,28.53
2017-08-30T17:16:19.328Z,28.49
2017-08-30T17:17:25.121Z,28.41
2017-08-30T17:18:30.926Z,28.29
2017-08-30T17:19:37.560Z,28.26
2017-08-30T17:20:43.396Z,28.23
2017-08-30T17:21:49.176Z,28.22
2017-08-30T17:22:55.181Z,28.20
2017-08-30T17:24:01.062Z,28.07
2017-08-30T17:25:06.828Z,27.99
2017-08-30T17:26:12.300Z,27.89
2017-08-30T17:27:18.676Z,27.83
2017-08-30T17:28:25.244Z,27.75
2017-08-30T17:29:31.221Z,27.68
2017-08-30T17:30:37.818Z,27.59
2017-08-30T17:31:43.642Z,27.48
2017-08-30T17:32:49.457Z,27.41
2017-08-30T17:33:57.853Z,27.24
2017-08-30T17:35:04.697Z,27.24
2017-08-30T17:36:10.938Z,27.15
2017-08-30T17:37:16.784Z,27.08
2017-08-30T17:38:22.857Z,27.02
2017-08-30T17:39:28.688Z,26.93
2017-08-30T17:40:36.930Z,26.87
2017-08-30T17:41:46.521Z,26.74
2017-08-30T17:42:53.335Z,26.59
2017-08-30T17:44:00.683Z,26.69
2017-08-30T17:45:06.566Z,26.59
2017-08-30T17:46:12.693Z,26.39
2017-08-30T17:47:19.915Z,26.45
2017-08-30T17:48:25.499Z,26.32
2017-08-30T17:49:33.095Z,26.31
2017-08-30T17:50:38.876Z,26.18
2017-08-30T17:51:44.700Z,26.19
2017-08-30T17:52:53.083Z,26.10
2017-08-30T17:53:59.474Z,26.03
2017-08-30T17:55:06.556Z,26.04
2017-08-30T17:56:12.547Z,25.98
2017-08-30T17:57:20.172Z,25.80
2017-08-30T17:58:28.496Z,25.60
2017-08-30T17:59:34.234Z,25.49
2017-08-30T18:00:40.306Z,25.54
2017-08-30T18:01:46.675Z,25.47
2017-08-30T18:02:52.460Z,25.34
2017-08-30T18:03:59.227Z,25.36
2017-08-30T18:05:05.605Z,25.43
2017-08-30T18:06:11.675Z,25.38
2017-08-30T18:07:17.437Z,25.36
2017-08-30T18:08:23.568Z,25.32
2017-08-30T18:09:30.196Z,25.12
2017-08-30T18:10:37.452Z,25.02
2017-08-30T18:11:43.260Z,24.99
2017-08-30T18:12:49.330Z,24.97
2017-08-30T18:13:55.932Z,24.98
2017-08-30T18:15:02.089Z,25.02
2017-08-30T18:16:08.123Z,24.94
2017-08-30T18:17:14.009Z,24.97
2017-08-30T18:18:19.917Z,24.93
2017-08-30T18:19:25.481Z,24.81
2017-08-30T18:20:31.647Z,24.74
2017-08-30T18:21:38.279Z,24.68
2017-08-30T18:22:44.311Z,24.67
2017-08-30T18:23:50.373Z,24.50
2017-08-30T18:24:56.622Z,24.49
2017-08-30T18:26:02.771Z,24.44
2017-08-30T18:27:08.629Z,24.43
2017-08-30T18:28:14.689Z,24.38
2017-08-30T18:29:20.313Z,24.35
2017-08-30T18:30:26.445Z,24.30
2017-08-30T18:31:32.553Z,24.26
2017-08-30T18:32:39.372Z,24.18
2017-08-30T18:33:45.403Z,24.16
2017-08-30T18:34:52.136Z,24.12
2017-08-30T18:35:57.739Z,24.02
2017-08-30T18:37:03.861Z,24.09
2017-08-30T18:38:10.270Z,24.13
2017-08-30T18:39:16.305Z,24.09
2017-08-30T18:40:22.398Z,24.05
2017-08-30T18:41:28.453Z,24.06
2017-08-30T18:42:34.542Z,24.01
2017-08-30T18:43:40.703Z,23.99
2017-08-30T18:44:46.964Z,23.95
2017-08-30T18:45:53.056Z,23.98
2017-08-30T18:47:00.293Z,23.85
2017-08-30T18:48:06.400Z,23.95
2017-08-30T18:49:12.824Z,23.99
2017-08-30T18:50:19.963Z,23.88
2017-08-30T18:51:26.009Z,23.86
2017-08-30T18:52:32.188Z,23.78
2017-08-30T18:53:38.283Z,23.67
2017-08-30T18:54:44.876Z,23.57
2017-08-30T18:55:50.730Z,23.61
2017-08-30T18:56:56.900Z,23.60
2017-08-30T18:58:03.725Z,23.57
2017-08-30T18:59:09.863Z,23.54
2017-08-30T19:00:16.581Z,23.56
2017-08-30T19:01:22.481Z,23.57
2017-08-30T19:02:28.326Z,23.56
2017-08-30T19:03:34.353Z,23.46
2017-08-30T19:04:40.408Z,23.51
2017-08-30T19:05:47.709Z,23.41
2017-08-30T19:06:54.631Z,23.41
2017-08-30T19:08:00.959Z,23.41
2017-08-30T19:09:08.316Z,23.39
2017-08-30T19:10:14.237Z,23.38
2017-08-30T19:11:20.404Z,23.50
2017-08-30T19:12:27.152Z,23.56
2017-08-30T19:13:33.196Z,23.68
2017-08-30T19:14:40.022Z,23.53
2017-08-30T19:15:47.793Z,23.46
2017-08-30T19:16:53.820Z,23.46
2017-08-30T19:18:00.010Z,23.44
2017-08-30T19:19:06.240Z,23.43
2017-08-30T19:20:12.377Z,23.50
2017-08-30T19:21:18.277Z,23.56
2017-08-30T19:22:24.847Z,23.65
2017-08-30T19:23:30.803Z,23.71
2017-08-30T19:24:36.676Z,23.71
2017-08-30T19:25:43.492Z,23.63
2017-08-30T19:26:50.340Z,23.57
2017-08-30T19:27:57.224Z,23.50
2017-08-30T19:29:03.580Z,23.49
2017-08-30T19:30:09.611Z,23.47
2017-08-30T19:31:16.441Z,23.49
2017-08-30T19:32:22.584Z,23.46
2017-08-30T19:33:28.721Z,23.47
2017-08-30T19:34:34.775Z,23.51
2017-08-30T19:35:40.858Z,23.51
2017-08-30T19:36:47.009Z,23.50
2017-08-30T19:37:53.076Z,23.59
2017-08-30T19:38:59.425Z,23.53
2017-08-30T19:40:06.467Z,23.47
2017-08-30T19:41:12.593Z,23.46
2017-08-30T19:42:18.596Z,23.55
2017-08-30T19:43:24.465Z,23.54
2017-08-30T19:44:31.221Z,23.44
2017-08-30T19:45:37.912Z,23.42
2017-08-30T19:46:44.577Z,23.42
2017-08-30T19:47:50.607Z,23.45
2017-08-30T19:48:57.558Z,23.47
2017-08-30T19:50:03.625Z,23.36
2017-08-30T19:51:09.711Z,23.30
2017-08-30T19:52:16.364Z,23.28
2017-08-30T19:53:22.711Z,23.33
2017-08-30T19:54:28.813Z,23.33
2017-08-30T19:55:34.917Z,23.35
2017-08-30T19:56:40.771Z,23.39
2017-08-30T19:57:46.907Z,23.42
2017-08-30T19:58:53.567Z,23.38
2017-08-30T19:59:59.742Z,23.36
2017-08-30T20:01:06.564Z,23.36
2017-08-30T20:02:13.454Z,23.39
2017-08-30T20:03:19.561Z,23.36
2017-08-30T20:04:25.598Z,23.26
2017-08-30T20:05:31.643Z,23.32
2017-08-30T20:06:38.728Z,23.39
2017-08-30T20:07:44.831Z,23.37
2017-08-30T20:08:50.992Z,23.36
2017-08-30T20:09:57.861Z,23.43
2017-08-30T20:11:03.993Z,23.39
2017-08-30T20:12:10.635Z,23.38
2017-08-30T20:13:16.736Z,23.33
2017-08-30T20:14:22.790Z,23.33
2017-08-30T20:15:28.844Z,23.30
2017-08-30T20:16:35.460Z,23.37
2017-08-30T20:17:41.661Z,23.35
2017-08-30T20:18:48.501Z,23.31
2017-08-30T20:19:54.996Z,23.37
2017-08-30T20:21:00.865Z,23.31
2017-08-30T20:22:06.958Z,23.27
2017-08-30T20:23:13.007Z,23.26
2017-08-30T20:24:19.063Z,23.28
2017-08-30T20:25:25.152Z,23.25
2017-08-30T20:26:31.193Z,23.22
2017-08-30T20:27:37.263Z,23.28
2017-08-30T20:28:43.382Z,23.33
2017-08-30T20:29:49.478Z,23.29
2017-08-30T20:30:55.884Z,23.29
2017-08-30T20:32:01.940Z,23.28
2017-08-30T20:33:08.760Z,23.26
2017-08-30T20:34:14.857Z,23.23
2017-08-30T20:35:21.590Z,23.19
2017-08-30T20:36:27.643Z,23.12
2017-08-30T20:37:33.607Z,23.10
2017-08-30T20:38:40.408Z,23.06
2017-08-30T20:39:47.028Z,23.06
2017-08-30T20:40:53.663Z,23.08
2017-08-30T20:41:59.823Z,23.03
2017-08-30T20:43:06.595Z,22.98
2017-08-30T20:44:12.635Z,22.87
2017-08-30T20:45:19.437Z,22.87
2017-08-30T20:46:26.013Z,22.87
2017-08-30T20:47:32.838Z,22.85
2017-08-30T20:48:38.960Z,22.82
2017-08-30T20:49:45.026Z,22.74
2017-08-30T20:50:51.173Z,22.72
2017-08-30T20:51:57.428Z,22.78
2017-08-30T20:53:03.568Z,22.70
2017-08-30T20:54:09.632Z,22.66
2017-08-30T20:55:15.672Z,22.59
2017-08-30T20:56:21.842Z,22.57
2017-08-30T20:57:27.912Z,22.55
2017-08-30T20:58:34.014Z,22.55
2017-08-30T20:59:40.917Z,22.62
2017-08-30T21:00:47.552Z,22.65
2017-08-30T21:01:54.087Z,22.59
2017-08-30T21:02:59.973Z,22.54
2017-08-30T21:04:06.110Z,22.55
2017-08-30T21:05:11.972Z,22.56
2017-08-30T21:06:18.126Z,22.52
2017-08-30T21:07:24.148Z,22.55
2017-08-30T21:08:31.190Z,22.50
2017-08-30T21:09:37.367Z,22.47
2017-08-30T21:10:43.545Z,22.46
2017-08-30T21:11:51.454Z,22.42
2017-08-30T21:12:57.589Z,22.46
2017-08-30T21:14:04.409Z,22.44
2017-08-30T21:15:10.599Z,22.42
2017-08-30T21:16:17.216Z,22.40
2017-08-30T21:17:24.090Z,22.41
2017-08-30T21:18:30.217Z,22.42
2017-08-30T21:19:37.127Z,22.49
2017-08-30T21:20:42.997Z,22.49
2017-08-30T21:21:49.923Z,22.49
2017-08-30T21:22:56.100Z,22.50
2017-08-30T21:24:02.159Z,22.48
2017-08-30T21:25:08.438Z,22.64
2017-08-30T21:26:15.095Z,22.65
2017-08-30T21:27:21.162Z,22.66
2017-08-30T21:28:28.027Z,22.64
2017-08-30T21:29:34.115Z,22.61
2017-08-30T21:30:40.796Z,22.62
2017-08-30T21:31:47.625Z,22.69
2017-08-30T21:32:55.089Z,22.79
2017-08-30T21:34:01.847Z,22.75
2017-08-30T21:35:07.919Z,22.68
2017-08-30T21:36:14.029Z,22.71
2017-08-30T21:37:20.093Z,22.65
2017-08-30T21:38:26.209Z,22.64
2017-08-30T21:39:33.115Z,22.67
2017-08-30T21:40:39.219Z,22.64
2017-08-30T21:41:45.341Z,22.71
2017-08-30T21:42:51.430Z,22.79
2017-08-30T21:43:57.618Z,22.81
2017-08-30T21:45:04.825Z,22.90
2017-08-30T21:46:12.296Z,22.98
2017-08-30T21:47:18.480Z,23.07
2017-08-30T21:48:24.605Z,23.10
2017-08-30T21:49:30.783Z,23.18
2017-08-30T21:50:36.929Z,23.24
2017-08-30T21:51:42.981Z,23.27
2017-08-30T21:52:49.048Z,23.28
2017-08-30T21:53:55.109Z,23.30
2017-08-30T21:55:02.221Z,23.32
2017-08-30T21:56:08.363Z,23.31
2017-08-30T21:57:14.412Z,23.27
2017-08-30T21:58:20.584Z,23.19
2017-08-30T21:59:26.677Z,23.18
2017-08-30T22:00:32.710Z,23.14
2017-08-30T22:01:38.806Z,23.10
2017-08-30T22:02:44.852Z,23.09
2017-08-30T22:03:50.898Z,23.01
2017-08-30T22:04:57.604Z,23.00
2017-08-30T22:06:03.325Z,22.90
2017-08-30T22:07:09.596Z,22.83
2017-08-30T22:08:15.797Z,22.86
2017-08-30T22:09:21.865Z,22.82
2017-08-30T22:10:27.939Z,22.82
2017-08-30T22:11:34.111Z,22.86
2017-08-30T22:12:40.172Z,22.87
2017-08-30T22:13:47.184Z,22.84
2017-08-30T22:14:53.120Z,22.84
2017-08-30T22:15:59.052Z,22.85
2017-08-30T22:17:05.138Z,22.67
2017-08-30T22:18:11.273Z,22.57
2017-08-30T22:19:17.908Z,22.60
2017-08-30T22:20:24.121Z,22.65
2017-08-30T22:21:30.848Z,22.63
2017-08-30T22:22:36.962Z,22.57
2017-08-30T22:23:42.836Z,22.50
2017-08-30T22:24:49.028Z,22.47
2017-08-30T22:25:55.133Z,22.48
2017-08-30T22:27:01.246Z,22.56
2017-08-30T22:28:07.366Z,22.59
2017-08-30T22:29:13.476Z,22.54
2017-08-30T22:30:19.548Z,22.49
2017-08-30T22:31:25.449Z,22.55
2017-08-30T22:32:31.504Z,22.57
2017-08-30T22:33:38.418Z,22.58
2017-08-30T22:34:44.581Z,22.57
2017-08-30T22:35:50.688Z,22.56
2017-08-30T22:36:58.595Z,22.53
2017-08-30T22:38:05.560Z,22.48
2017-08-30T22:39:12.545Z,22.55
2017-08-30T22:40:18.620Z,22.61
2017-08-30T22:41:24.703Z,22.58
2017-08-30T22:42:30.909Z,22.46
2017-08-30T22:43:38.339Z,22.49
2017-08-30T22:44:44.450Z,22.40
2017-08-30T22:45:50.584Z,22.36
2017-08-30T22:46:56.847Z,22.29
2017-08-30T22:48:03.931Z,22.32
2017-08-30T22:49:10.108Z,22.37
2017-08-30T22:50:16.179Z,22.40
2017-08-30T22:51:22.697Z,22.34
2017-08-30T22:52:28.690Z,22.24
2017-08-30T22:53:34.777Z,22.22
2017-08-30T22:54:40.960Z,22.20
2017-08-30T22:55:47.144Z,22.30
2017-08-30T22:56:53.254Z,22.34
2017-08-30T22:57:59.377Z,22.37
2017-08-30T22:59:06.094Z,22.38
2017-08-30T23:00:12.213Z,22.32